sensor_id;sensor_type;location;lat;lon;timestamp;temperature;humidity
9943;DHT22;5010;45.080;7.634;2023-03-11T06:33:24;20.30;1.00
9943;DHT22;5010;45.080;7.634;2023-03-11T06:35:57;20.40;1.00
9943;DHT22;5010;45.080;7.634;2023-03-11T06:38:26;20.40;1.00
9943;DHT22;5010;45.080;7.634;2023-03-11T06:40:53;20.30;1.00
9943;DHT22;5010;45.080;7.634;2023-03-11T06:43:21;20.30;1.00
9943;DHT22;5010;45.080;7.634;2023-03-11T06:45:48;20.30;1.00
9943;DHT22;5010;45.080;7.634;2023-03-11T06:48:15;20.30;1.00
9943;DHT22;5010;45.080;7.634;2023-03-11T06:50:41;20.30;1.00
9943;DHT22;5010;45.080;7.634;2023-03-11T06:53:08;20.30;1.00
9943;DHT22;5010;45.080;7.634;2023-03-11T06:55:37;20.30;1.00
9943;DHT22;5010;45.080;7.634;2023-03-11T06:58:04;20.30;1.00
9943;DHT22;5010;45.080;7.634;2023-03-11T07:00:31;20.30;1.00
9943;DHT22;5010;45.080;7.634;2023-03-11T07:02:58;20.30;1.00
9943;DHT22;5010;45.080;7.634;2023-03-11T07:05:25;20.30;1.00
9943;DHT22;5010;45.080;7.634;2023-03-11T07:07:53;20.30;1.00
9943;DHT22;5010;45.080;7.634;2023-03-11T07:10:21;20.30;1.00
9943;DHT22;5010;45.080;7.634;2023-03-11T07:12:49;20.30;1.00
9943;DHT22;5010;45.080;7.634;2023-03-11T07:15:16;20.40;1.00
9943;DHT22;5010;45.080;7.634;2023-03-11T07:17:42;20.40;1.00
9943;DHT22;5010;45.080;7.634;2023-03-11T07:20:10;20.40;1.00
9943;DHT22;5010;45.080;7.634;2023-03-11T07:22:37;20.40;1.00
9943;DHT22;5010;45.080;7.634;2023-03-11T07:25:05;20.40;1.00
9943;DHT22;5010;45.080;7.634;2023-03-11T07:27:31;20.40;1.00
9943;DHT22;5010;45.080;7.634;2023-03-11T07:30:01;20.40;1.00
9943;DHT22;5010;45.080;7.634;2023-03-11T07:32:28;20.40;1.00
9943;DHT22;5010;45.080;7.634;2023-03-11T07:34:54;20.50;1.00
9943;DHT22;5010;45.080;7.634;2023-03-11T07:37:21;20.40;1.00
9943;DHT22;5010;45.080;7.634;2023-03-11T07:39:48;20.40;1.00
9943;DHT22;5010;45.080;7.634;2023-03-11T07:42:15;20.40;1.00
9943;DHT22;5010;45.080;7.634;2023-03-11T07:44:42;20.50;1.00
9943;DHT22;5010;45.080;7.634;2023-03-11T07:47:10;20.50;1.00
9943;DHT22;5010;45.080;7.634;2023-03-11T07:49:37;20.50;1.00
9943;DHT22;5010;45.080;7.634;2023-03-11T07:52:04;20.50;1.00
9943;DHT22;5010;45.080;7.634;2023-03-11T07:54:31;20.50;1.00
9943;DHT22;5010;45.080;7.634;2023-03-11T07:56:58;20.50;1.00
9943;DHT22;5010;45.080;7.634;2023-03-11T07:59:25;20.50;1.00
9943;DHT22;5010;45.080;7.634;2023-03-11T08:01:52;20.50;1.00
9943;DHT22;5010;45.080;7.634;2023-03-11T08:04:20;20.40;1.00
9943;DHT22;5010;45.080;7.634;2023-03-11T08:06:47;20.50;1.00
9943;DHT22;5010;45.080;7.634;2023-03-11T08:09:14;20.50;1.00
9943;DHT22;5010;45.080;7.634;2023-03-11T08:11:41;20.40;1.00
9943;DHT22;5010;45.080;7.634;2023-03-11T08:14:08;20.40;1.00
9943;DHT22;5010;45.080;7.634;2023-03-11T08:16:39;20.40;1.00
9943;DHT22;5010;45.080;7.634;2023-03-11T08:19:06;20.40;1.00
9943;DHT22;5010;45.080;7.634;2023-03-11T08:21:35;20.40;1.00
9943;DHT22;5010;45.080;7.634;2023-03-11T08:24:02;20.40;1.00
9943;DHT22;5010;45.080;7.634;2023-03-11T08:26:30;20.40;1.00
9943;DHT22;5010;45.080;7.634;2023-03-11T08:28:57;20.40;1.00
9943;DHT22;5010;45.080;7.634;2023-03-11T08:31:26;20.40;1.00
9943;DHT22;5010;45.080;7.634;2023-03-11T08:33:57;20.40;1.00
9943;DHT22;5010;45.080;7.634;2023-03-11T08:36:26;20.40;1.00
9943;DHT22;5010;45.080;7.634;2023-03-11T08:38:55;20.40;1.00
9943;DHT22;5010;45.080;7.634;2023-03-11T08:41:22;20.40;1.00
9943;DHT22;5010;45.080;7.634;2023-03-11T08:43:49;20.40;1.00
9943;DHT22;5010;45.080;7.634;2023-03-11T08:46:23;20.40;1.00
9943;DHT22;5010;45.080;7.634;2023-03-11T08:48:51;20.30;1.00
9943;DHT22;5010;45.080;7.634;2023-03-11T08:51:19;20.30;1.00
9943;DHT22;5010;45.080;7.634;2023-03-11T08:53:46;20.30;1.00
9943;DHT22;5010;45.080;7.634;2023-03-11T08:56:14;20.30;1.00
9943;DHT22;5010;45.080;7.634;2023-03-11T08:58:41;20.30;1.00
9943;DHT22;5010;45.080;7.634;2023-03-11T09:01:10;20.30;1.00
9943;DHT22;5010;45.080;7.634;2023-03-11T09:03:38;20.40;1.00
9943;DHT22;5010;45.080;7.634;2023-03-11T09:06:07;20.40;1.00
9943;DHT22;5010;45.080;7.634;2023-03-11T09:08:34;20.40;1.00
9943;DHT22;5010;45.080;7.634;2023-03-11T09:11:01;20.50;1.00
9943;DHT22;5010;45.080;7.634;2023-03-11T09:13:30;20.50;1.00
9943;DHT22;5010;45.080;7.634;2023-03-11T09:15:57;20.50;1.00
9943;DHT22;5010;45.080;7.634;2023-03-11T09:18:24;20.50;1.00
9943;DHT22;5010;45.080;7.634;2023-03-11T09:20:51;20.50;1.00
9943;DHT22;5010;45.080;7.634;2023-03-11T09:23:23;20.50;1.00
9943;DHT22;5010;45.080;7.634;2023-03-11T09:25:49;20.60;1.00
9943;DHT22;5010;45.080;7.634;2023-03-11T09:28:16;20.60;1.00
9943;DHT22;5010;45.080;7.634;2023-03-11T09:30:44;20.60;1.00
9943;DHT22;5010;45.080;7.634;2023-03-11T09:33:11;20.50;1.00
9943;DHT22;5010;45.080;7.634;2023-03-11T09:35:38;20.50;1.00
9943;DHT22;5010;45.080;7.634;2023-03-11T09:38:05;20.60;1.00
9943;DHT22;5010;45.080;7.634;2023-03-11T09:40:50;20.60;1.00
9943;DHT22;5010;45.080;7.634;2023-03-11T09:43:29;20.60;1.00
9943;DHT22;5010;45.080;7.634;2023-03-11T09:46:05;20.60;1.00
9943;DHT22;5010;45.080;7.634;2023-03-11T09:48:40;20.60;1.00
9943;DHT22;5010;45.080;7.634;2023-03-11T09:51:14;20.60;1.00
9943;DHT22;5010;45.080;7.634;2023-03-11T09:53:44;20.60;1.00
9943;DHT22;5010;45.080;7.634;2023-03-11T09:56:14;20.60;1.00
9943;DHT22;5010;45.080;7.634;2023-03-11T09:58:44;20.60;1.00
9943;DHT22;5010;45.080;7.634;2023-03-11T10:01:17;20.60;1.00
9943;DHT22;5010;45.080;7.634;2023-03-11T10:03:46;20.60;1.00
9943;DHT22;5010;45.080;7.634;2023-03-11T10:06:16;20.60;1.00
9943;DHT22;5010;45.080;7.634;2023-03-11T10:08:48;20.60;1.00
9943;DHT22;5010;45.080;7.634;2023-03-11T10:11:36;20.60;1.00
9943;DHT22;5010;45.080;7.634;2023-03-11T10:14:19;20.60;1.00
9943;DHT22;5010;45.080;7.634;2023-03-11T10:16:58;20.70;1.00
9943;DHT22;5010;45.080;7.634;2023-03-11T10:19:37;20.70;1.00
9943;DHT22;5010;45.080;7.634;2023-03-11T10:22:13;20.70;1.00
9943;DHT22;5010;45.080;7.634;2023-03-11T10:25:02;20.70;1.00
9943;DHT22;5010;45.080;7.634;2023-03-11T10:27:34;20.70;1.00
9943;DHT22;5010;45.080;7.634;2023-03-11T10:30:08;20.70;1.00
9943;DHT22;5010;45.080;7.634;2023-03-11T10:32:43;20.70;1.00
9943;DHT22;5010;45.080;7.634;2023-03-11T10:35:16;20.80;1.00
9943;DHT22;5010;45.080;7.634;2023-03-11T10:37:49;20.80;1.00
9943;DHT22;5010;45.080;7.634;2023-03-11T10:40:25;20.80;1.00
9943;DHT22;5010;45.080;7.634;2023-03-11T10:42:56;20.80;1.00
9943;DHT22;5010;45.080;7.634;2023-03-11T10:45:24;20.80;1.00
9943;DHT22;5010;45.080;7.634;2023-03-11T10:47:55;20.90;1.00
9943;DHT22;5010;45.080;7.634;2023-03-11T10:50:22;20.90;1.00
9943;DHT22;5010;45.080;7.634;2023-03-11T10:53:07;20.90;1.00
9943;DHT22;5010;45.080;7.634;2023-03-11T10:55:36;21.00;1.00
9943;DHT22;5010;45.080;7.634;2023-03-11T10:58:13;21.00;1.00
9943;DHT22;5010;45.080;7.634;2023-03-11T11:00:40;21.00;1.00
9943;DHT22;5010;45.080;7.634;2023-03-11T11:03:16;21.00;1.00
9943;DHT22;5010;45.080;7.634;2023-03-11T11:05:56;21.10;1.00
9943;DHT22;5010;45.080;7.634;2023-03-11T11:08:23;21.10;1.00
9943;DHT22;5010;45.080;7.634;2023-03-11T11:10:52;21.10;1.00
9943;DHT22;5010;45.080;7.634;2023-03-11T11:13:20;21.10;1.00
9943;DHT22;5010;45.080;7.634;2023-03-11T11:15:56;21.10;1.00
9943;DHT22;5010;45.080;7.634;2023-03-11T11:18:27;21.10;1.00
9943;DHT22;5010;45.080;7.634;2023-03-11T11:21:00;21.20;1.00
9943;DHT22;5010;45.080;7.634;2023-03-11T11:23:33;21.20;1.00
9943;DHT22;5010;45.080;7.634;2023-03-11T11:26:04;21.20;1.00
9943;DHT22;5010;45.080;7.634;2023-03-11T11:28:32;21.20;1.00
9943;DHT22;5010;45.080;7.634;2023-03-11T11:31:03;21.20;1.00
9943;DHT22;5010;45.080;7.634;2023-03-11T11:33:37;21.30;1.00
9943;DHT22;5010;45.080;7.634;2023-03-11T11:36:10;21.20;1.00
9943;DHT22;5010;45.080;7.634;2023-03-11T11:38:38;21.30;1.00
9943;DHT22;5010;45.080;7.634;2023-03-11T11:41:08;21.30;1.00
9943;DHT22;5010;45.080;7.634;2023-03-11T11:43:43;21.30;1.00
9943;DHT22;5010;45.080;7.634;2023-03-11T11:46:18;21.40;1.00
9943;DHT22;5010;45.080;7.634;2023-03-11T11:48:53;21.40;1.00
9943;DHT22;5010;45.080;7.634;2023-03-11T11:51:27;21.40;1.00
9943;DHT22;5010;45.080;7.634;2023-03-11T11:53:58;21.40;1.00
9943;DHT22;5010;45.080;7.634;2023-03-11T11:56:26;21.40;1.00
9943;DHT22;5010;45.080;7.634;2023-03-11T11:58:53;21.40;1.00
9943;DHT22;5010;45.080;7.634;2023-03-11T12:01:29;21.40;1.00
9943;DHT22;5010;45.080;7.634;2023-03-11T12:04:20;21.50;1.00
9943;DHT22;5010;45.080;7.634;2023-03-11T12:06:58;21.50;1.00
9943;DHT22;5010;45.080;7.634;2023-03-11T12:09:31;21.50;1.00
9943;DHT22;5010;45.080;7.634;2023-03-11T12:12:07;21.50;1.00
9943;DHT22;5010;45.080;7.634;2023-03-11T12:14:43;21.50;1.00
9943;DHT22;5010;45.080;7.634;2023-03-11T12:17:15;21.60;1.00
9943;DHT22;5010;45.080;7.634;2023-03-11T12:19:47;21.60;1.00
9943;DHT22;5010;45.080;7.634;2023-03-11T12:22:36;21.60;1.00
9943;DHT22;5010;45.080;7.634;2023-03-11T12:25:22;21.70;1.00
9943;DHT22;5010;45.080;7.634;2023-03-11T12:27:53;21.60;1.00
9943;DHT22;5010;45.080;7.634;2023-03-11T12:30:25;21.70;1.00
9943;DHT22;5010;45.080;7.634;2023-03-11T12:32:56;21.70;1.00
9943;DHT22;5010;45.080;7.634;2023-03-11T12:35:27;21.70;1.00
9943;DHT22;5010;45.080;7.634;2023-03-11T12:38:01;21.70;1.00
9943;DHT22;5010;45.080;7.634;2023-03-11T12:40:57;21.70;1.00
9943;DHT22;5010;45.080;7.634;2023-03-11T12:46:08;21.70;1.00
9943;DHT22;5010;45.080;7.634;2023-03-11T12:48:41;21.70;1.00
9943;DHT22;5010;45.080;7.634;2023-03-11T12:54:26;21.70;1.00
9943;DHT22;5010;45.080;7.634;2023-03-11T12:56:55;21.70;1.00
9943;DHT22;5010;45.080;7.634;2023-03-11T13:00:10;21.70;1.00
9943;DHT22;5010;45.080;7.634;2023-03-11T13:05:50;21.80;1.00
9943;DHT22;5010;45.080;7.634;2023-03-11T13:08:19;21.80;1.00
9943;DHT22;5010;45.080;7.634;2023-03-11T13:10:49;21.80;1.00
9943;DHT22;5010;45.080;7.634;2023-03-11T13:13:37;21.80;1.00
9943;DHT22;5010;45.080;7.634;2023-03-11T13:16:35;21.80;1.00
9943;DHT22;5010;45.080;7.634;2023-03-11T13:19:32;21.80;1.00
9943;DHT22;5010;45.080;7.634;2023-03-11T13:22:00;21.80;1.00
9943;DHT22;5010;45.080;7.634;2023-03-11T13:24:50;21.70;1.00
9943;DHT22;5010;45.080;7.634;2023-03-11T13:27:38;21.80;1.00
9943;DHT22;5010;45.080;7.634;2023-03-11T13:30:13;21.80;1.00
9943;DHT22;5010;45.080;7.634;2023-03-11T13:33:01;21.80;1.00
9943;DHT22;5010;45.080;7.634;2023-03-11T13:35:43;21.80;1.00
9943;DHT22;5010;45.080;7.634;2023-03-11T13:38:28;21.80;1.00
9943;DHT22;5010;45.080;7.634;2023-03-11T13:41:00;21.80;1.00
9943;DHT22;5010;45.080;7.634;2023-03-11T13:43:29;21.80;1.00
9943;DHT22;5010;45.080;7.634;2023-03-11T13:46:00;21.80;1.00
9943;DHT22;5010;45.080;7.634;2023-03-11T13:48:29;21.80;1.00
9943;DHT22;5010;45.080;7.634;2023-03-11T13:51:00;21.80;1.00
9943;DHT22;5010;45.080;7.634;2023-03-11T13:53:34;21.80;1.00
9943;DHT22;5010;45.080;7.634;2023-03-11T13:56:03;21.80;1.00
9943;DHT22;5010;45.080;7.634;2023-03-11T13:58:32;21.80;1.00
9943;DHT22;5010;45.080;7.634;2023-03-11T14:00:59;21.80;1.00
9943;DHT22;5010;45.080;7.634;2023-03-11T14:03:29;21.80;1.00
9943;DHT22;5010;45.080;7.634;2023-03-11T14:05:59;21.80;1.00
9943;DHT22;5010;45.080;7.634;2023-03-11T14:08:28;21.80;1.00
9943;DHT22;5010;45.080;7.634;2023-03-11T14:10:57;21.80;1.00
9943;DHT22;5010;45.080;7.634;2023-03-11T14:13:26;21.80;1.00
9943;DHT22;5010;45.080;7.634;2023-03-11T14:15:59;21.80;1.00
9943;DHT22;5010;45.080;7.634;2023-03-11T14:18:35;21.80;1.00
9943;DHT22;5010;45.080;7.634;2023-03-11T14:21:05;21.80;1.00
9943;DHT22;5010;45.080;7.634;2023-03-11T14:23:34;21.90;1.00
9943;DHT22;5010;45.080;7.634;2023-03-11T14:26:05;21.90;1.00
9943;DHT22;5010;45.080;7.634;2023-03-11T14:28:36;21.80;1.00
9943;DHT22;5010;45.080;7.634;2023-03-11T14:31:06;21.80;1.00
9943;DHT22;5010;45.080;7.634;2023-03-11T14:33:33;21.80;1.00
9943;DHT22;5010;45.080;7.634;2023-03-11T14:36:03;21.80;1.00
9943;DHT22;5010;45.080;7.634;2023-03-11T14:38:32;21.90;1.00
9943;DHT22;5010;45.080;7.634;2023-03-11T14:41:00;21.90;1.00
9943;DHT22;5010;45.080;7.634;2023-03-11T14:43:31;21.90;1.00
9943;DHT22;5010;45.080;7.634;2023-03-11T14:46:00;21.80;1.00
9943;DHT22;5010;45.080;7.634;2023-03-11T14:48:33;21.90;1.00
9943;DHT22;5010;45.080;7.634;2023-03-11T14:51:03;21.80;1.00
9943;DHT22;5010;45.080;7.634;2023-03-11T14:53:35;21.80;1.00
9943;DHT22;5010;45.080;7.634;2023-03-11T14:56:06;21.80;1.00
9943;DHT22;5010;45.080;7.634;2023-03-11T14:58:36;21.80;1.00
9943;DHT22;5010;45.080;7.634;2023-03-11T15:01:09;21.80;1.00
9943;DHT22;5010;45.080;7.634;2023-03-11T15:03:44;21.80;1.00
9943;DHT22;5010;45.080;7.634;2023-03-11T15:06:13;21.80;1.00
9943;DHT22;5010;45.080;7.634;2023-03-11T15:08:44;21.80;1.00
9943;DHT22;5010;45.080;7.634;2023-03-11T15:11:20;21.80;1.00
9943;DHT22;5010;45.080;7.634;2023-03-11T15:13:49;21.80;1.00
9943;DHT22;5010;45.080;7.634;2023-03-11T15:16:28;21.80;1.00
9943;DHT22;5010;45.080;7.634;2023-03-11T15:18:59;21.80;1.00
9943;DHT22;5010;45.080;7.634;2023-03-11T15:21:26;21.80;1.00
9943;DHT22;5010;45.080;7.634;2023-03-11T15:23:58;21.80;1.00
9943;DHT22;5010;45.080;7.634;2023-03-11T15:26:27;21.70;1.00
9943;DHT22;5010;45.080;7.634;2023-03-11T15:28:57;21.70;1.00
9943;DHT22;5010;45.080;7.634;2023-03-11T15:31:33;21.70;1.00
9943;DHT22;5010;45.080;7.634;2023-03-11T15:39:42;21.70;1.00
9943;DHT22;5010;45.080;7.634;2023-03-11T15:42:17;21.70;1.00
9943;DHT22;5010;45.080;7.634;2023-03-11T15:47:30;21.70;1.00
9943;DHT22;5010;45.080;7.634;2023-03-11T15:50:04;21.70;1.00
9943;DHT22;5010;45.080;7.634;2023-03-11T15:52:35;21.70;1.00
9943;DHT22;5010;45.080;7.634;2023-03-11T15:55:02;21.60;1.00
9943;DHT22;5010;45.080;7.634;2023-03-11T15:57:29;21.60;1.00
9943;DHT22;5010;45.080;7.634;2023-03-11T15:59:58;21.60;1.00
9943;DHT22;5010;45.080;7.634;2023-03-11T16:02:27;21.60;1.00
9943;DHT22;5010;45.080;7.634;2023-03-11T16:04:55;21.60;1.00
9943;DHT22;5010;45.080;7.634;2023-03-11T16:07:24;21.60;1.00
9943;DHT22;5010;45.080;7.634;2023-03-11T16:09:51;21.60;1.00
9943;DHT22;5010;45.080;7.634;2023-03-11T16:12:20;21.60;1.00
9943;DHT22;5010;45.080;7.634;2023-03-11T16:14:49;21.60;1.00
9943;DHT22;5010;45.080;7.634;2023-03-11T16:17:16;21.50;1.00
9943;DHT22;5010;45.080;7.634;2023-03-11T16:19:44;21.50;1.00
9943;DHT22;5010;45.080;7.634;2023-03-11T16:22:15;21.50;1.00
9943;DHT22;5010;45.080;7.634;2023-03-11T16:24:45;21.50;1.00
9943;DHT22;5010;45.080;7.634;2023-03-11T16:27:15;21.50;1.00
9943;DHT22;5010;45.080;7.634;2023-03-11T16:29:43;21.50;1.00
9943;DHT22;5010;45.080;7.634;2023-03-11T16:32:09;21.50;1.00
9943;DHT22;5010;45.080;7.634;2023-03-11T16:34:37;21.50;1.00
9943;DHT22;5010;45.080;7.634;2023-03-11T16:37:04;21.50;1.00
9943;DHT22;5010;45.080;7.634;2023-03-11T16:39:31;21.50;1.00
9943;DHT22;5010;45.080;7.634;2023-03-11T16:42:00;21.50;1.00
9943;DHT22;5010;45.080;7.634;2023-03-11T16:44:27;21.50;1.00
9943;DHT22;5010;45.080;7.634;2023-03-11T16:46:54;21.40;1.00
9943;DHT22;5010;45.080;7.634;2023-03-11T16:49:21;21.40;1.00
9943;DHT22;5010;45.080;7.634;2023-03-11T16:51:47;21.40;1.00
9943;DHT22;5010;45.080;7.634;2023-03-11T16:54:14;21.40;1.00
9943;DHT22;5010;45.080;7.634;2023-03-11T16:56:41;21.40;1.00
9943;DHT22;5010;45.080;7.634;2023-03-11T16:59:09;21.40;1.00
9943;DHT22;5010;45.080;7.634;2023-03-11T17:01:36;21.40;1.00
9943;DHT22;5010;45.080;7.634;2023-03-11T17:04:04;21.40;1.00
9943;DHT22;5010;45.080;7.634;2023-03-11T17:06:31;21.40;1.00
9943;DHT22;5010;45.080;7.634;2023-03-11T17:08:58;21.40;1.00
9943;DHT22;5010;45.080;7.634;2023-03-11T17:11:25;21.40;1.00
9943;DHT22;5010;45.080;7.634;2023-03-11T17:13:54;21.30;1.00
9943;DHT22;5010;45.080;7.634;2023-03-11T17:16:22;21.30;1.00
9943;DHT22;5010;45.080;7.634;2023-03-11T17:18:49;21.30;1.00
9943;DHT22;5010;45.080;7.634;2023-03-11T17:21:17;21.30;1.00
9943;DHT22;5010;45.080;7.634;2023-03-11T17:23:44;21.30;1.00
9943;DHT22;5010;45.080;7.634;2023-03-11T17:26:13;21.30;1.00
9943;DHT22;5010;45.080;7.634;2023-03-11T17:28:40;21.30;1.00
9943;DHT22;5010;45.080;7.634;2023-03-11T17:31:10;21.30;1.00
9943;DHT22;5010;45.080;7.634;2023-03-11T17:33:39;21.30;1.00
9943;DHT22;5010;45.080;7.634;2023-03-11T17:36:07;21.30;1.00
9943;DHT22;5010;45.080;7.634;2023-03-11T17:38:34;21.30;1.00
9943;DHT22;5010;45.080;7.634;2023-03-11T17:41:05;21.30;1.00
9943;DHT22;5010;45.080;7.634;2023-03-11T17:43:32;21.30;1.00
9943;DHT22;5010;45.080;7.634;2023-03-11T17:45:59;21.20;1.00
9943;DHT22;5010;45.080;7.634;2023-03-11T17:48:26;21.20;1.00
9943;DHT22;5010;45.080;7.634;2023-03-11T17:50:55;21.20;1.00
9943;DHT22;5010;45.080;7.634;2023-03-11T17:53:21;21.20;1.00
9943;DHT22;5010;45.080;7.634;2023-03-11T17:55:48;21.20;1.00
9943;DHT22;5010;45.080;7.634;2023-03-11T17:58:15;21.20;1.00
9943;DHT22;5010;45.080;7.634;2023-03-11T18:00:42;21.20;1.00
9943;DHT22;5010;45.080;7.634;2023-03-11T18:03:09;21.20;1.00
9943;DHT22;5010;45.080;7.634;2023-03-11T18:05:36;21.20;1.00
9943;DHT22;5010;45.080;7.634;2023-03-11T18:08:05;21.20;1.00
9943;DHT22;5010;45.080;7.634;2023-03-11T18:10:32;21.20;1.00
9943;DHT22;5010;45.080;7.634;2023-03-11T18:12:59;21.20;1.00
9943;DHT22;5010;45.080;7.634;2023-03-11T18:15:26;21.20;1.00
9943;DHT22;5010;45.080;7.634;2023-03-11T18:17:53;21.20;1.00
9943;DHT22;5010;45.080;7.634;2023-03-11T18:20:21;21.20;1.00
9943;DHT22;5010;45.080;7.634;2023-03-11T18:22:48;21.20;1.00
9943;DHT22;5010;45.080;7.634;2023-03-11T18:25:16;21.10;1.00
9943;DHT22;5010;45.080;7.634;2023-03-11T18:27:43;21.20;1.00
9943;DHT22;5010;45.080;7.634;2023-03-11T18:30:11;21.20;1.00
9943;DHT22;5010;45.080;7.634;2023-03-11T18:32:39;21.10;1.00
9943;DHT22;5010;45.080;7.634;2023-03-11T18:35:06;21.10;1.00
9943;DHT22;5010;45.080;7.634;2023-03-11T18:37:33;21.10;1.00
9943;DHT22;5010;45.080;7.634;2023-03-11T18:40:00;21.10;1.00
9943;DHT22;5010;45.080;7.634;2023-03-11T18:42:29;21.10;1.00
9943;DHT22;5010;45.080;7.634;2023-03-11T18:44:56;21.10;1.00
9943;DHT22;5010;45.080;7.634;2023-03-11T18:47:23;21.10;1.00
9943;DHT22;5010;45.080;7.634;2023-03-11T18:49:50;21.10;1.00
9943;DHT22;5010;45.080;7.634;2023-03-11T18:52:17;21.10;1.00
9943;DHT22;5010;45.080;7.634;2023-03-11T18:54:44;21.10;1.00
9943;DHT22;5010;45.080;7.634;2023-03-11T18:57:10;21.10;1.00
9943;DHT22;5010;45.080;7.634;2023-03-11T18:59:39;21.10;1.00
9943;DHT22;5010;45.080;7.634;2023-03-11T19:02:05;21.10;1.00
9943;DHT22;5010;45.080;7.634;2023-03-11T19:04:32;21.10;1.00
9943;DHT22;5010;45.080;7.634;2023-03-11T19:06:59;21.10;1.00
9943;DHT22;5010;45.080;7.634;2023-03-11T19:09:26;21.10;1.00
9943;DHT22;5010;45.080;7.634;2023-03-11T19:11:53;21.10;1.00
9943;DHT22;5010;45.080;7.634;2023-03-11T19:14:20;21.10;1.00
9943;DHT22;5010;45.080;7.634;2023-03-11T19:16:48;21.10;1.00
9943;DHT22;5010;45.080;7.634;2023-03-11T19:19:15;21.10;1.00
9943;DHT22;5010;45.080;7.634;2023-03-11T19:21:42;21.10;1.00
9943;DHT22;5010;45.080;7.634;2023-03-11T19:24:10;21.10;1.00
9943;DHT22;5010;45.080;7.634;2023-03-11T19:26:37;21.10;1.00
9943;DHT22;5010;45.080;7.634;2023-03-11T19:29:05;21.00;1.00
9943;DHT22;5010;45.080;7.634;2023-03-11T19:31:32;21.00;1.00
9943;DHT22;5010;45.080;7.634;2023-03-11T19:34:00;21.10;1.00
9943;DHT22;5010;45.080;7.634;2023-03-11T19:36:27;21.00;1.00
9943;DHT22;5010;45.080;7.634;2023-03-11T19:38:54;21.00;1.00
9943;DHT22;5010;45.080;7.634;2023-03-11T19:41:21;21.00;1.00
9943;DHT22;5010;45.080;7.634;2023-03-11T19:43:48;21.10;1.00
9943;DHT22;5010;45.080;7.634;2023-03-11T19:46:18;21.00;1.00
9943;DHT22;5010;45.080;7.634;2023-03-11T19:48:45;21.00;1.00
9943;DHT22;5010;45.080;7.634;2023-03-11T19:51:13;21.00;1.00
9943;DHT22;5010;45.080;7.634;2023-03-11T19:53:42;21.00;1.00
9943;DHT22;5010;45.080;7.634;2023-03-11T19:56:09;21.00;1.00
9943;DHT22;5010;45.080;7.634;2023-03-11T19:58:35;21.00;1.00
9943;DHT22;5010;45.080;7.634;2023-03-11T20:01:03;21.00;1.00
9943;DHT22;5010;45.080;7.634;2023-03-11T20:03:30;21.00;1.00
9943;DHT22;5010;45.080;7.634;2023-03-11T20:06:03;21.00;1.00
9943;DHT22;5010;45.080;7.634;2023-03-11T20:08:31;21.00;1.00
9943;DHT22;5010;45.080;7.634;2023-03-11T20:11:01;21.00;1.00
9943;DHT22;5010;45.080;7.634;2023-03-11T20:13:27;21.00;1.00
9943;DHT22;5010;45.080;7.634;2023-03-11T20:15:54;21.00;1.00
9943;DHT22;5010;45.080;7.634;2023-03-11T20:18:21;21.00;1.00
9943;DHT22;5010;45.080;7.634;2023-03-11T20:20:48;21.00;1.00
9943;DHT22;5010;45.080;7.634;2023-03-11T20:23:15;21.00;1.00
9943;DHT22;5010;45.080;7.634;2023-03-11T20:25:43;21.00;1.00
9943;DHT22;5010;45.080;7.634;2023-03-11T20:28:10;20.90;1.00
9943;DHT22;5010;45.080;7.634;2023-03-11T20:30:38;21.00;1.00
9943;DHT22;5010;45.080;7.634;2023-03-11T20:33:05;21.00;1.00
9943;DHT22;5010;45.080;7.634;2023-03-11T20:35:32;21.00;1.00
9943;DHT22;5010;45.080;7.634;2023-03-11T20:37:59;21.00;1.00
9943;DHT22;5010;45.080;7.634;2023-03-11T20:40:27;21.00;1.00
9943;DHT22;5010;45.080;7.634;2023-03-11T20:42:55;20.90;1.00
9943;DHT22;5010;45.080;7.634;2023-03-11T20:45:22;21.00;1.00
9943;DHT22;5010;45.080;7.634;2023-03-11T20:47:49;20.90;1.00
9943;DHT22;5010;45.080;7.634;2023-03-11T20:50:18;20.90;1.00
9943;DHT22;5010;45.080;7.634;2023-03-11T20:52:45;20.90;1.00
9943;DHT22;5010;45.080;7.634;2023-03-11T20:55:12;20.90;1.00
9943;DHT22;5010;45.080;7.634;2023-03-11T20:57:39;20.90;1.00
9943;DHT22;5010;45.080;7.634;2023-03-11T21:00:09;20.90;1.00
9943;DHT22;5010;45.080;7.634;2023-03-11T21:02:37;20.90;1.00
9943;DHT22;5010;45.080;7.634;2023-03-11T21:05:04;20.90;1.00
9943;DHT22;5010;45.080;7.634;2023-03-11T21:07:31;20.90;1.00
9943;DHT22;5010;45.080;7.634;2023-03-11T21:09:58;20.90;1.00
9943;DHT22;5010;45.080;7.634;2023-03-11T21:12:25;20.90;1.00
9943;DHT22;5010;45.080;7.634;2023-03-11T21:14:52;20.90;1.00
9943;DHT22;5010;45.080;7.634;2023-03-11T21:17:20;20.90;1.00
9943;DHT22;5010;45.080;7.634;2023-03-11T21:19:47;20.90;1.00
9943;DHT22;5010;45.080;7.634;2023-03-11T21:22:13;20.90;1.00
9943;DHT22;5010;45.080;7.634;2023-03-11T21:24:40;20.90;1.00
9943;DHT22;5010;45.080;7.634;2023-03-11T21:27:07;20.90;1.00
9943;DHT22;5010;45.080;7.634;2023-03-11T21:29:34;20.90;1.00
9943;DHT22;5010;45.080;7.634;2023-03-11T21:32:01;20.90;1.00
9943;DHT22;5010;45.080;7.634;2023-03-11T21:34:30;20.90;1.00
9943;DHT22;5010;45.080;7.634;2023-03-11T21:36:57;20.90;1.00
9943;DHT22;5010;45.080;7.634;2023-03-11T21:39:24;20.90;1.00
9943;DHT22;5010;45.080;7.634;2023-03-11T21:41:50;20.90;1.00
9943;DHT22;5010;45.080;7.634;2023-03-11T21:44:20;20.90;1.00
9943;DHT22;5010;45.080;7.634;2023-03-11T21:46:47;20.90;1.00
9943;DHT22;5010;45.080;7.634;2023-03-11T21:49:14;20.90;1.00
9943;DHT22;5010;45.080;7.634;2023-03-11T21:51:42;20.90;1.00
9943;DHT22;5010;45.080;7.634;2023-03-11T21:54:09;20.90;1.00
9943;DHT22;5010;45.080;7.634;2023-03-11T21:56:37;20.90;1.00
9943;DHT22;5010;45.080;7.634;2023-03-11T21:59:04;20.90;1.00
9943;DHT22;5010;45.080;7.634;2023-03-11T22:01:30;20.90;1.00
9943;DHT22;5010;45.080;7.634;2023-03-11T22:03:58;20.90;1.00
9943;DHT22;5010;45.080;7.634;2023-03-11T22:06:25;20.90;1.00
9943;DHT22;5010;45.080;7.634;2023-03-11T22:08:53;20.90;1.00
9943;DHT22;5010;45.080;7.634;2023-03-11T22:11:20;20.90;1.00
9943;DHT22;5010;45.080;7.634;2023-03-11T22:13:48;20.90;1.00
9943;DHT22;5010;45.080;7.634;2023-03-11T22:16:16;20.90;1.00
9943;DHT22;5010;45.080;7.634;2023-03-11T22:18:43;20.90;1.00
9943;DHT22;5010;45.080;7.634;2023-03-11T22:21:11;20.80;1.00
9943;DHT22;5010;45.080;7.634;2023-03-11T22:23:39;20.90;1.00
9943;DHT22;5010;45.080;7.634;2023-03-11T22:26:08;20.90;1.00
9943;DHT22;5010;45.080;7.634;2023-03-11T22:28:35;20.90;1.00
9943;DHT22;5010;45.080;7.634;2023-03-11T22:31:05;20.90;1.00
9943;DHT22;5010;45.080;7.634;2023-03-11T22:33:32;20.90;1.00
9943;DHT22;5010;45.080;7.634;2023-03-11T22:35:59;20.90;1.00
9943;DHT22;5010;45.080;7.634;2023-03-11T22:38:28;20.90;1.00
9943;DHT22;5010;45.080;7.634;2023-03-11T22:40:56;20.90;1.00
9943;DHT22;5010;45.080;7.634;2023-03-11T22:43:26;20.80;1.00
9943;DHT22;5010;45.080;7.634;2023-03-11T22:45:53;20.90;1.00
9943;DHT22;5010;45.080;7.634;2023-03-11T22:48:20;20.80;1.00
9943;DHT22;5010;45.080;7.634;2023-03-11T22:50:46;20.80;1.00
9943;DHT22;5010;45.080;7.634;2023-03-11T22:53:13;20.80;1.00
9943;DHT22;5010;45.080;7.634;2023-03-11T22:55:41;20.80;1.00
9943;DHT22;5010;45.080;7.634;2023-03-11T22:58:08;20.80;1.00
9943;DHT22;5010;45.080;7.634;2023-03-11T23:00:37;20.80;1.00
9943;DHT22;5010;45.080;7.634;2023-03-11T23:03:04;20.80;1.00
9943;DHT22;5010;45.080;7.634;2023-03-11T23:05:31;20.80;1.00
9943;DHT22;5010;45.080;7.634;2023-03-11T23:08:05;20.80;1.00
9943;DHT22;5010;45.080;7.634;2023-03-11T23:10:31;20.80;1.00
9943;DHT22;5010;45.080;7.634;2023-03-11T23:12:58;20.80;1.00
9943;DHT22;5010;45.080;7.634;2023-03-11T23:15:25;20.80;1.00
9943;DHT22;5010;45.080;7.634;2023-03-11T23:17:53;20.80;1.00
9943;DHT22;5010;45.080;7.634;2023-03-11T23:20:20;20.80;1.00
9943;DHT22;5010;45.080;7.634;2023-03-11T23:22:47;20.80;1.00